sensor_id;sensor_type;location;lat;lon;timestamp;P1;durP1;ratioP1;P2;durP2;ratioP2
37425;SDS011;23285;50.180;7.036;2023-02-24T00:02:18;38.57;;;26.73;;
37425;SDS011;23285;50.180;7.036;2023-02-24T00:05:05;36.20;;;26.10;;
37425;SDS011;23285;50.180;7.036;2023-02-24T00:07:52;37.10;;;26.00;;
37425;SDS011;23285;50.180;7.036;2023-02-24T00:10:38;36.00;;;26.07;;
37425;SDS011;23285;50.180;7.036;2023-02-24T00:13:25;39.60;;;27.30;;
37425;SDS011;23285;50.180;7.036;2023-02-24T00:16:13;40.37;;;27.87;;
37425;SDS011;23285;50.180;7.036;2023-02-24T00:19:01;41.27;;;28.17;;
37425;SDS011;23285;50.180;7.036;2023-02-24T00:21:51;41.40;;;28.93;;
37425;SDS011;23285;50.180;7.036;2023-02-24T00:24:38;39.17;;;28.30;;
37425;SDS011;23285;50.180;7.036;2023-02-24T00:27:25;38.20;;;26.50;;
37425;SDS011;23285;50.180;7.036;2023-02-24T00:30:14;42.60;;;30.77;;
37425;SDS011;23285;50.180;7.036;2023-02-24T00:33:03;42.43;;;29.13;;
37425;SDS011;23285;50.180;7.036;2023-02-24T00:35:50;42.87;;;29.77;;
37425;SDS011;23285;50.180;7.036;2023-02-24T00:38:37;41.87;;;29.27;;
37425;SDS011;23285;50.180;7.036;2023-02-24T00:41:24;44.40;;;29.80;;
37425;SDS011;23285;50.180;7.036;2023-02-24T00:44:13;39.43;;;28.17;;
37425;SDS011;23285;50.180;7.036;2023-02-24T00:46:59;42.27;;;30.07;;
37425;SDS011;23285;50.180;7.036;2023-02-24T00:49:49;39.80;;;29.13;;
37425;SDS011;23285;50.180;7.036;2023-02-24T00:52:36;39.93;;;29.13;;
37425;SDS011;23285;50.180;7.036;2023-02-24T00:55:23;42.77;;;29.13;;
37425;SDS011;23285;50.180;7.036;2023-02-24T00:58:10;40.43;;;29.03;;
37425;SDS011;23285;50.180;7.036;2023-02-24T01:00:57;40.70;;;28.07;;
37425;SDS011;23285;50.180;7.036;2023-02-24T01:03:44;38.80;;;28.03;;
37425;SDS011;23285;50.180;7.036;2023-02-24T01:06:34;42.70;;;29.23;;
37425;SDS011;23285;50.180;7.036;2023-02-24T01:09:20;41.47;;;27.97;;
37425;SDS011;23285;50.180;7.036;2023-02-24T01:12:07;36.33;;;27.40;;
37425;SDS011;23285;50.180;7.036;2023-02-24T01:15:17;36.47;;;27.03;;
37425;SDS011;23285;50.180;7.036;2023-02-24T01:18:04;37.87;;;27.80;;
37425;SDS011;23285;50.180;7.036;2023-02-24T01:20:51;38.17;;;27.97;;
37425;SDS011;23285;50.180;7.036;2023-02-24T01:23:39;39.77;;;27.63;;
37425;SDS011;23285;50.180;7.036;2023-02-24T01:26:26;36.40;;;26.20;;
37425;SDS011;23285;50.180;7.036;2023-02-24T01:29:13;33.73;;;26.27;;
37425;SDS011;23285;50.180;7.036;2023-02-24T01:32:00;36.53;;;26.07;;
37425;SDS011;23285;50.180;7.036;2023-02-24T01:34:46;35.47;;;25.90;;
37425;SDS011;23285;50.180;7.036;2023-02-24T01:37:32;34.23;;;26.57;;
37425;SDS011;23285;50.180;7.036;2023-02-24T01:40:21;36.93;;;26.20;;
37425;SDS011;23285;50.180;7.036;2023-02-24T01:43:11;35.97;;;26.93;;
37425;SDS011;23285;50.180;7.036;2023-02-24T01:45:58;34.03;;;25.67;;
37425;SDS011;23285;50.180;7.036;2023-02-24T01:48:45;32.30;;;25.27;;
37425;SDS011;23285;50.180;7.036;2023-02-24T01:51:32;35.30;;;25.43;;
37425;SDS011;23285;50.180;7.036;2023-02-24T01:54:20;30.53;;;23.73;;
37425;SDS011;23285;50.180;7.036;2023-02-24T01:57:09;36.50;;;26.10;;
37425;SDS011;23285;50.180;7.036;2023-02-24T01:59:59;32.23;;;24.20;;
37425;SDS011;23285;50.180;7.036;2023-02-24T02:03:11;32.23;;;24.80;;
37425;SDS011;23285;50.180;7.036;2023-02-24T02:06:03;33.70;;;25.60;;
37425;SDS011;23285;50.180;7.036;2023-02-24T02:08:51;31.37;;;23.53;;
37425;SDS011;23285;50.180;7.036;2023-02-24T02:11:38;31.87;;;25.00;;
37425;SDS011;23285;50.180;7.036;2023-02-24T02:14:26;33.43;;;24.50;;
37425;SDS011;23285;50.180;7.036;2023-02-24T02:17:15;32.73;;;24.70;;
37425;SDS011;23285;50.180;7.036;2023-02-24T02:20:10;32.20;;;23.23;;
37425;SDS011;23285;50.180;7.036;2023-02-24T02:23:21;31.17;;;23.50;;
37425;SDS011;23285;50.180;7.036;2023-02-24T02:26:21;35.43;;;25.47;;
37425;SDS011;23285;50.180;7.036;2023-02-24T02:29:36;43.67;;;30.10;;
37425;SDS011;23285;50.180;7.036;2023-02-24T02:36:14;34.07;;;24.63;;
37425;SDS011;23285;50.180;7.036;2023-02-24T02:39:09;33.10;;;24.67;;
37425;SDS011;23285;50.180;7.036;2023-02-24T02:42:02;34.83;;;26.60;;
37425;SDS011;23285;50.180;7.036;2023-02-24T02:44:51;35.20;;;25.17;;
37425;SDS011;23285;50.180;7.036;2023-02-24T02:47:45;32.23;;;24.57;;
37425;SDS011;23285;50.180;7.036;2023-02-24T02:50:39;30.67;;;22.97;;
37425;SDS011;23285;50.180;7.036;2023-02-24T02:53:32;30.13;;;23.67;;
37425;SDS011;23285;50.180;7.036;2023-02-24T02:56:23;28.43;;;21.87;;
37425;SDS011;23285;50.180;7.036;2023-02-24T02:59:14;27.87;;;21.37;;
37425;SDS011;23285;50.180;7.036;2023-02-24T03:02:06;31.53;;;23.57;;
37425;SDS011;23285;50.180;7.036;2023-02-24T03:05:00;32.70;;;24.40;;
37425;SDS011;23285;50.180;7.036;2023-02-24T03:07:53;33.87;;;23.20;;
37425;SDS011;23285;50.180;7.036;2023-02-24T03:10:43;30.87;;;22.47;;
37425;SDS011;23285;50.180;7.036;2023-02-24T03:13:37;29.67;;;22.60;;
37425;SDS011;23285;50.180;7.036;2023-02-24T03:16:27;30.50;;;22.27;;
37425;SDS011;23285;50.180;7.036;2023-02-24T03:19:14;28.90;;;21.80;;
37425;SDS011;23285;50.180;7.036;2023-02-24T03:22:04;31.20;;;22.27;;
37425;SDS011;23285;50.180;7.036;2023-02-24T03:24:55;30.57;;;22.57;;
37425;SDS011;23285;50.180;7.036;2023-02-24T03:27:50;32.33;;;22.77;;
37425;SDS011;23285;50.180;7.036;2023-02-24T03:30:42;28.70;;;22.13;;
37425;SDS011;23285;50.180;7.036;2023-02-24T03:33:30;31.27;;;22.77;;
37425;SDS011;23285;50.180;7.036;2023-02-24T03:36:20;30.43;;;21.50;;
37425;SDS011;23285;50.180;7.036;2023-02-24T03:39:07;31.37;;;22.03;;
37425;SDS011;23285;50.180;7.036;2023-02-24T03:42:02;33.90;;;23.37;;
37425;SDS011;23285;50.180;7.036;2023-02-24T03:44:54;28.60;;;21.10;;
37425;SDS011;23285;50.180;7.036;2023-02-24T03:47:42;30.33;;;22.00;;
37425;SDS011;23285;50.180;7.036;2023-02-24T03:50:30;30.53;;;22.87;;
37425;SDS011;23285;50.180;7.036;2023-02-24T03:53:29;30.67;;;23.13;;
37425;SDS011;23285;50.180;7.036;2023-02-24T03:56:22;30.10;;;21.87;;
37425;SDS011;23285;50.180;7.036;2023-02-24T03:59:17;29.40;;;21.10;;
37425;SDS011;23285;50.180;7.036;2023-02-24T04:02:14;32.03;;;23.80;;
37425;SDS011;23285;50.180;7.036;2023-02-24T04:05:09;30.37;;;21.83;;
37425;SDS011;23285;50.180;7.036;2023-02-24T04:08:08;32.13;;;22.87;;
37425;SDS011;23285;50.180;7.036;2023-02-24T04:10:57;32.90;;;23.70;;
37425;SDS011;23285;50.180;7.036;2023-02-24T04:13:50;28.27;;;21.90;;
37425;SDS011;23285;50.180;7.036;2023-02-24T04:16:42;32.97;;;23.63;;
37425;SDS011;23285;50.180;7.036;2023-02-24T04:19:33;31.73;;;21.63;;
37425;SDS011;23285;50.180;7.036;2023-02-24T04:22:24;31.03;;;21.97;;
37425;SDS011;23285;50.180;7.036;2023-02-24T04:25:12;32.97;;;22.67;;
37425;SDS011;23285;50.180;7.036;2023-02-24T04:28:01;33.07;;;23.37;;
37425;SDS011;23285;50.180;7.036;2023-02-24T04:30:52;30.47;;;23.10;;
37425;SDS011;23285;50.180;7.036;2023-02-24T04:33:42;33.77;;;23.60;;
37425;SDS011;23285;50.180;7.036;2023-02-24T04:36:35;32.57;;;23.37;;
37425;SDS011;23285;50.180;7.036;2023-02-24T04:39:24;31.63;;;23.17;;
37425;SDS011;23285;50.180;7.036;2023-02-24T04:42:13;30.13;;;22.10;;
37425;SDS011;23285;50.180;7.036;2023-02-24T04:45:00;33.13;;;25.33;;
37425;SDS011;23285;50.180;7.036;2023-02-24T04:47:54;42.83;;;30.00;;
37425;SDS011;23285;50.180;7.036;2023-02-24T04:50:44;36.97;;;26.90;;
37425;SDS011;23285;50.180;7.036;2023-02-24T04:53:33;34.23;;;24.90;;
37425;SDS011;23285;50.180;7.036;2023-02-24T04:56:21;33.20;;;25.13;;
37425;SDS011;23285;50.180;7.036;2023-02-24T04:59:07;35.10;;;25.00;;
37425;SDS011;23285;50.180;7.036;2023-02-24T05:01:54;37.93;;;26.93;;
37425;SDS011;23285;50.180;7.036;2023-02-24T05:04:44;30.67;;;22.03;;
37425;SDS011;23285;50.180;7.036;2023-02-24T05:07:33;32.90;;;23.63;;
37425;SDS011;23285;50.180;7.036;2023-02-24T05:10:20;31.73;;;23.53;;
37425;SDS011;23285;50.180;7.036;2023-02-24T05:13:12;31.73;;;23.40;;
37425;SDS011;23285;50.180;7.036;2023-02-24T05:16:02;32.63;;;24.17;;
37425;SDS011;23285;50.180;7.036;2023-02-24T05:18:51;29.00;;;21.67;;
37425;SDS011;23285;50.180;7.036;2023-02-24T05:21:58;30.63;;;22.93;;
37425;SDS011;23285;50.180;7.036;2023-02-24T05:24:43;28.93;;;20.33;;
37425;SDS011;23285;50.180;7.036;2023-02-24T05:27:32;26.23;;;20.20;;
37425;SDS011;23285;50.180;7.036;2023-02-24T05:30:22;26.50;;;21.17;;
37425;SDS011;23285;50.180;7.036;2023-02-24T05:33:09;26.10;;;19.60;;
37425;SDS011;23285;50.180;7.036;2023-02-24T05:36:00;30.60;;;21.30;;
37425;SDS011;23285;50.180;7.036;2023-02-24T05:38:49;28.80;;;21.53;;
37425;SDS011;23285;50.180;7.036;2023-02-24T05:41:39;30.13;;;21.77;;
37425;SDS011;23285;50.180;7.036;2023-02-24T05:44:28;29.37;;;22.30;;
37425;SDS011;23285;50.180;7.036;2023-02-24T05:47:15;29.90;;;21.67;;
37425;SDS011;23285;50.180;7.036;2023-02-24T05:50:03;29.27;;;22.23;;
37425;SDS011;23285;50.180;7.036;2023-02-24T05:52:52;29.93;;;21.20;;
37425;SDS011;23285;50.180;7.036;2023-02-24T05:55:39;27.70;;;20.47;;
37425;SDS011;23285;50.180;7.036;2023-02-24T05:58:27;29.37;;;20.27;;
37425;SDS011;23285;50.180;7.036;2023-02-24T06:01:15;28.63;;;20.30;;
37425;SDS011;23285;50.180;7.036;2023-02-24T06:04:02;30.63;;;21.17;;
37425;SDS011;23285;50.180;7.036;2023-02-24T06:06:50;28.53;;;20.33;;
37425;SDS011;23285;50.180;7.036;2023-02-24T06:09:36;27.10;;;19.87;;
37425;SDS011;23285;50.180;7.036;2023-02-24T06:12:25;28.43;;;20.67;;
37425;SDS011;23285;50.180;7.036;2023-02-24T06:15:12;26.30;;;19.30;;
37425;SDS011;23285;50.180;7.036;2023-02-24T06:18:01;31.43;;;20.67;;
37425;SDS011;23285;50.180;7.036;2023-02-24T06:20:48;35.17;;;23.20;;
37425;SDS011;23285;50.180;7.036;2023-02-24T06:23:34;27.23;;;19.90;;
37425;SDS011;23285;50.180;7.036;2023-02-24T06:26:21;26.40;;;19.43;;
37425;SDS011;23285;50.180;7.036;2023-02-24T06:29:10;23.67;;;18.03;;
37425;SDS011;23285;50.180;7.036;2023-02-24T06:31:58;26.03;;;19.57;;
37425;SDS011;23285;50.180;7.036;2023-02-24T06:34:53;26.73;;;18.87;;
37425;SDS011;23285;50.180;7.036;2023-02-24T06:37:40;28.90;;;18.73;;
37425;SDS011;23285;50.180;7.036;2023-02-24T06:40:27;26.53;;;18.23;;
37425;SDS011;23285;50.180;7.036;2023-02-24T06:43:14;24.60;;;18.03;;
37425;SDS011;23285;50.180;7.036;2023-02-24T06:46:01;25.73;;;18.73;;
37425;SDS011;23285;50.180;7.036;2023-02-24T06:48:49;27.20;;;19.00;;
37425;SDS011;23285;50.180;7.036;2023-02-24T06:51:37;24.07;;;17.10;;
37425;SDS011;23285;50.180;7.036;2023-02-24T06:54:24;26.57;;;18.83;;
37425;SDS011;23285;50.180;7.036;2023-02-24T06:57:14;27.37;;;19.33;;
37425;SDS011;23285;50.180;7.036;2023-02-24T07:00:01;26.00;;;18.80;;
37425;SDS011;23285;50.180;7.036;2023-02-24T07:03:00;27.73;;;18.43;;
37425;SDS011;23285;50.180;7.036;2023-02-24T07:05:57;25.27;;;18.30;;
37425;SDS011;23285;50.180;7.036;2023-02-24T07:09:00;28.70;;;18.30;;
37425;SDS011;23285;50.180;7.036;2023-02-24T07:11:51;23.70;;;17.30;;
37425;SDS011;23285;50.180;7.036;2023-02-24T07:14:39;27.07;;;17.73;;
37425;SDS011;23285;50.180;7.036;2023-02-24T07:17:25;24.73;;;17.73;;
37425;SDS011;23285;50.180;7.036;2023-02-24T07:20:12;25.40;;;18.40;;
37425;SDS011;23285;50.180;7.036;2023-02-24T07:23:08;29.73;;;19.20;;
37425;SDS011;23285;50.180;7.036;2023-02-24T07:25:56;25.37;;;17.57;;
37425;SDS011;23285;50.180;7.036;2023-02-24T07:28:43;29.83;;;18.40;;
37425;SDS011;23285;50.180;7.036;2023-02-24T07:31:31;29.47;;;19.10;;
37425;SDS011;23285;50.180;7.036;2023-02-24T07:34:20;27.07;;;18.83;;
37425;SDS011;23285;50.180;7.036;2023-02-24T07:37:08;29.10;;;19.53;;
37425;SDS011;23285;50.180;7.036;2023-02-24T07:39:55;31.20;;;20.70;;
37425;SDS011;23285;50.180;7.036;2023-02-24T07:42:43;27.17;;;18.70;;
37425;SDS011;23285;50.180;7.036;2023-02-24T07:45:30;27.73;;;18.90;;
37425;SDS011;23285;50.180;7.036;2023-02-24T07:48:17;29.67;;;19.97;;
37425;SDS011;23285;50.180;7.036;2023-02-24T07:51:05;28.50;;;18.70;;
37425;SDS011;23285;50.180;7.036;2023-02-24T07:53:52;30.07;;;18.83;;
37425;SDS011;23285;50.180;7.036;2023-02-24T07:56:42;24.10;;;17.87;;
37425;SDS011;23285;50.180;7.036;2023-02-24T07:59:41;25.40;;;18.27;;
37425;SDS011;23285;50.180;7.036;2023-02-24T08:02:30;29.87;;;18.10;;
37425;SDS011;23285;50.180;7.036;2023-02-24T08:05:17;26.90;;;18.10;;
37425;SDS011;23285;50.180;7.036;2023-02-24T08:08:05;25.60;;;17.30;;
37425;SDS011;23285;50.180;7.036;2023-02-24T08:10:51;24.57;;;17.50;;
37425;SDS011;23285;50.180;7.036;2023-02-24T08:13:47;20.53;;;15.57;;
37425;SDS011;23285;50.180;7.036;2023-02-24T08:16:35;28.90;;;19.67;;
37425;SDS011;23285;50.180;7.036;2023-02-24T08:19:24;22.47;;;16.30;;
37425;SDS011;23285;50.180;7.036;2023-02-24T08:22:16;20.57;;;15.10;;
37425;SDS011;23285;50.180;7.036;2023-02-24T08:25:07;21.13;;;15.23;;
37425;SDS011;23285;50.180;7.036;2023-02-24T08:28:01;20.30;;;13.60;;
37425;SDS011;23285;50.180;7.036;2023-02-24T08:30:50;17.20;;;12.67;;
37425;SDS011;23285;50.180;7.036;2023-02-24T08:33:37;17.03;;;11.90;;
37425;SDS011;23285;50.180;7.036;2023-02-24T08:36:24;15.87;;;12.20;;
37425;SDS011;23285;50.180;7.036;2023-02-24T08:39:10;15.60;;;11.57;;
37425;SDS011;23285;50.180;7.036;2023-02-24T08:41:58;17.00;;;12.13;;
37425;SDS011;23285;50.180;7.036;2023-02-24T08:44:44;20.07;;;13.43;;
37425;SDS011;23285;50.180;7.036;2023-02-24T08:47:33;17.10;;;12.07;;
37425;SDS011;23285;50.180;7.036;2023-02-24T08:50:21;16.60;;;11.83;;
37425;SDS011;23285;50.180;7.036;2023-02-24T08:53:10;18.53;;;12.23;;
37425;SDS011;23285;50.180;7.036;2023-02-24T08:56:02;23.60;;;13.77;;
37425;SDS011;23285;50.180;7.036;2023-02-24T08:58:53;17.50;;;12.00;;
37425;SDS011;23285;50.180;7.036;2023-02-24T09:01:48;14.03;;;10.90;;
37425;SDS011;23285;50.180;7.036;2023-02-24T09:04:57;17.37;;;11.43;;
37425;SDS011;23285;50.180;7.036;2023-02-24T09:07:48;16.80;;;12.00;;
37425;SDS011;23285;50.180;7.036;2023-02-24T09:10:38;15.03;;;11.47;;
37425;SDS011;23285;50.180;7.036;2023-02-24T09:13:24;15.97;;;11.37;;
37425;SDS011;23285;50.180;7.036;2023-02-24T09:16:16;16.37;;;12.70;;
37425;SDS011;23285;50.180;7.036;2023-02-24T09:19:03;16.03;;;12.00;;
37425;SDS011;23285;50.180;7.036;2023-02-24T09:22:08;16.97;;;12.00;;
37425;SDS011;23285;50.180;7.036;2023-02-24T09:25:14;15.90;;;11.67;;
37425;SDS011;23285;50.180;7.036;2023-02-24T09:28:06;49.00;;;33.50;;
37425;SDS011;23285;50.180;7.036;2023-02-24T09:30:53;15.60;;;11.97;;
37425;SDS011;23285;50.180;7.036;2023-02-24T09:33:39;14.10;;;10.63;;
37425;SDS011;23285;50.180;7.036;2023-02-24T09:36:26;15.43;;;11.27;;
37425;SDS011;23285;50.180;7.036;2023-02-24T09:39:13;14.70;;;11.20;;
37425;SDS011;23285;50.180;7.036;2023-02-24T09:42:01;16.60;;;11.43;;
37425;SDS011;23285;50.180;7.036;2023-02-24T09:45:05;13.90;;;10.67;;
37425;SDS011;23285;50.180;7.036;2023-02-24T09:47:54;15.13;;;11.40;;
37425;SDS011;23285;50.180;7.036;2023-02-24T09:50:41;12.43;;;9.30;;
37425;SDS011;23285;50.180;7.036;2023-02-24T09:53:48;10.00;;;7.83;;
37425;SDS011;23285;50.180;7.036;2023-02-24T09:56:37;11.00;;;8.63;;
37425;SDS011;23285;50.180;7.036;2023-02-24T09:59:29;13.13;;;9.10;;
37425;SDS011;23285;50.180;7.036;2023-02-24T10:02:21;10.67;;;8.20;;
37425;SDS011;23285;50.180;7.036;2023-02-24T10:05:21;10.23;;;8.50;;
37425;SDS011;23285;50.180;7.036;2023-02-24T10:08:13;11.83;;;9.33;;
37425;SDS011;23285;50.180;7.036;2023-02-24T10:11:01;10.57;;;9.03;;
37425;SDS011;23285;50.180;7.036;2023-02-24T10:13:53;12.13;;;9.80;;
37425;SDS011;23285;50.180;7.036;2023-02-24T10:16:43;12.33;;;8.83;;
37425;SDS011;23285;50.180;7.036;2023-02-24T10:19:42;12.93;;;9.57;;
37425;SDS011;23285;50.180;7.036;2023-02-24T10:22:39;12.07;;;8.63;;
37425;SDS011;23285;50.180;7.036;2023-02-24T10:25:37;10.80;;;9.03;;
37425;SDS011;23285;50.180;7.036;2023-02-24T10:28:38;11.00;;;8.70;;
37425;SDS011;23285;50.180;7.036;2023-02-24T10:31:28;9.53;;;7.97;;
37425;SDS011;23285;50.180;7.036;2023-02-24T10:34:19;10.43;;;8.67;;
37425;SDS011;23285;50.180;7.036;2023-02-24T10:37:10;9.33;;;7.53;;
37425;SDS011;23285;50.180;7.036;2023-02-24T10:39:57;9.83;;;7.47;;
37425;SDS011;23285;50.180;7.036;2023-02-24T10:43:02;8.83;;;7.50;;
37425;SDS011;23285;50.180;7.036;2023-02-24T10:45:54;9.53;;;7.70;;
37425;SDS011;23285;50.180;7.036;2023-02-24T10:48:50;9.10;;;7.47;;
37425;SDS011;23285;50.180;7.036;2023-02-24T10:51:50;7.57;;;6.63;;
37425;SDS011;23285;50.180;7.036;2023-02-24T10:54:37;10.90;;;7.70;;
37425;SDS011;23285;50.180;7.036;2023-02-24T10:57:48;9.47;;;7.80;;
37425;SDS011;23285;50.180;7.036;2023-02-24T11:00:40;9.10;;;6.40;;
37425;SDS011;23285;50.180;7.036;2023-02-24T11:03:59;9.03;;;6.90;;
37425;SDS011;23285;50.180;7.036;2023-02-24T11:07:02;20.60;;;6.27;;
37425;SDS011;23285;50.180;7.036;2023-02-24T11:10:00;9.50;;;6.57;;
37425;SDS011;23285;50.180;7.036;2023-02-24T11:12:54;8.73;;;5.83;;
37425;SDS011;23285;50.180;7.036;2023-02-24T11:16:10;7.10;;;5.47;;
37425;SDS011;23285;50.180;7.036;2023-02-24T11:19:14;7.63;;;6.17;;
37425;SDS011;23285;50.180;7.036;2023-02-24T11:22:02;9.27;;;7.27;;
37425;SDS011;23285;50.180;7.036;2023-02-24T11:24:52;7.73;;;6.47;;
37425;SDS011;23285;50.180;7.036;2023-02-24T11:27:39;10.80;;;6.57;;
37425;SDS011;23285;50.180;7.036;2023-02-24T11:30:33;9.97;;;6.47;;
37425;SDS011;23285;50.180;7.036;2023-02-24T11:33:25;10.23;;;7.07;;
37425;SDS011;23285;50.180;7.036;2023-02-24T11:36:21;8.67;;;7.00;;
37425;SDS011;23285;50.180;7.036;2023-02-24T11:39:22;8.13;;;6.53;;
37425;SDS011;23285;50.180;7.036;2023-02-24T11:42:20;13.70;;;6.40;;
37425;SDS011;23285;50.180;7.036;2023-02-24T11:45:13;6.60;;;5.10;;
37425;SDS011;23285;50.180;7.036;2023-02-24T11:48:09;6.30;;;5.23;;
37425;SDS011;23285;50.180;7.036;2023-02-24T11:50:58;7.20;;;5.67;;
37425;SDS011;23285;50.180;7.036;2023-02-24T11:53:48;7.13;;;6.20;;
37425;SDS011;23285;50.180;7.036;2023-02-24T11:56:39;6.80;;;5.30;;
37425;SDS011;23285;50.180;7.036;2023-02-24T11:59:28;7.03;;;5.50;;
37425;SDS011;23285;50.180;7.036;2023-02-24T12:02:23;7.43;;;5.37;;
37425;SDS011;23285;50.180;7.036;2023-02-24T12:05:19;9.40;;;6.63;;
37425;SDS011;23285;50.180;7.036;2023-02-24T12:08:21;6.80;;;5.40;;
37425;SDS011;23285;50.180;7.036;2023-02-24T12:11:11;7.33;;;6.00;;
37425;SDS011;23285;50.180;7.036;2023-02-24T12:14:05;7.77;;;5.90;;
37425;SDS011;23285;50.180;7.036;2023-02-24T12:17:09;7.13;;;5.93;;
37425;SDS011;23285;50.180;7.036;2023-02-24T12:20:02;9.40;;;6.67;;
37425;SDS011;23285;50.180;7.036;2023-02-24T12:22:54;6.37;;;5.20;;
37425;SDS011;23285;50.180;7.036;2023-02-24T12:25:50;9.47;;;6.37;;
37425;SDS011;23285;50.180;7.036;2023-02-24T12:28:46;6.07;;;5.30;;
37425;SDS011;23285;50.180;7.036;2023-02-24T12:31:59;7.23;;;5.07;;
37425;SDS011;23285;50.180;7.036;2023-02-24T12:34:55;8.10;;;5.60;;
37425;SDS011;23285;50.180;7.036;2023-02-24T12:37:53;6.17;;;4.67;;
37425;SDS011;23285;50.180;7.036;2023-02-24T12:40:45;8.03;;;4.90;;
37425;SDS011;23285;50.180;7.036;2023-02-24T12:43:35;6.80;;;4.37;;
37425;SDS011;23285;50.180;7.036;2023-02-24T12:46:29;6.60;;;4.93;;
37425;SDS011;23285;50.180;7.036;2023-02-24T12:52:33;5.90;;;4.23;;
37425;SDS011;23285;50.180;7.036;2023-02-24T12:55:25;6.80;;;5.00;;
37425;SDS011;23285;50.180;7.036;2023-02-24T12:58:18;6.37;;;5.00;;
37425;SDS011;23285;50.180;7.036;2023-02-24T13:01:09;6.53;;;4.23;;
37425;SDS011;23285;50.180;7.036;2023-02-24T13:04:06;7.40;;;5.13;;
37425;SDS011;23285;50.180;7.036;2023-02-24T13:07:05;8.70;;;5.27;;
37425;SDS011;23285;50.180;7.036;2023-02-24T13:10:00;6.80;;;4.87;;
37425;SDS011;23285;50.180;7.036;2023-02-24T13:12:56;6.27;;;4.53;;
37425;SDS011;23285;50.180;7.036;2023-02-24T13:15:48;7.30;;;5.07;;
37425;SDS011;23285;50.180;7.036;2023-02-24T13:18:36;8.50;;;5.33;;
37425;SDS011;23285;50.180;7.036;2023-02-24T13:21:23;7.70;;;4.90;;
37425;SDS011;23285;50.180;7.036;2023-02-24T13:24:18;7.07;;;5.10;;
37425;SDS011;23285;50.180;7.036;2023-02-24T13:27:20;7.97;;;4.77;;
37425;SDS011;23285;50.180;7.036;2023-02-24T13:30:22;7.17;;;4.47;;
37425;SDS011;23285;50.180;7.036;2023-02-24T13:33:22;6.90;;;4.80;;
37425;SDS011;23285;50.180;7.036;2023-02-24T13:36:14;8.20;;;4.40;;
37425;SDS011;23285;50.180;7.036;2023-02-24T13:39:04;8.37;;;4.80;;
37425;SDS011;23285;50.180;7.036;2023-02-24T13:42:01;8.70;;;4.77;;
37425;SDS011;23285;50.180;7.036;2023-02-24T13:44:51;5.93;;;4.20;;
37425;SDS011;23285;50.180;7.036;2023-02-24T13:47:43;6.73;;;4.60;;
37425;SDS011;23285;50.180;7.036;2023-02-24T13:50:52;9.53;;;4.63;;
37425;SDS011;23285;50.180;7.036;2023-02-24T13:53:56;6.40;;;4.27;;
37425;SDS011;23285;50.180;7.036;2023-02-24T13:56:54;7.33;;;3.40;;
37425;SDS011;23285;50.180;7.036;2023-02-24T13:59:57;7.30;;;3.70;;
37425;SDS011;23285;50.180;7.036;2023-02-24T14:02:56;4.80;;;3.43;;
37425;SDS011;23285;50.180;7.036;2023-02-24T14:05:44;5.90;;;3.43;;
37425;SDS011;23285;50.180;7.036;2023-02-24T14:08:34;5.83;;;3.30;;
37425;SDS011;23285;50.180;7.036;2023-02-24T14:11:27;5.20;;;3.57;;
37425;SDS011;23285;50.180;7.036;2023-02-24T14:14:15;5.13;;;3.27;;
37425;SDS011;23285;50.180;7.036;2023-02-24T14:17:04;6.40;;;3.20;;
37425;SDS011;23285;50.180;7.036;2023-02-24T14:19:53;6.80;;;3.70;;
37425;SDS011;23285;50.180;7.036;2023-02-24T14:22:43;5.83;;;3.17;;
37425;SDS011;23285;50.180;7.036;2023-02-24T14:25:33;7.90;;;3.20;;
37425;SDS011;23285;50.180;7.036;2023-02-24T14:28:23;7.50;;;3.33;;
37425;SDS011;23285;50.180;7.036;2023-02-24T14:31:11;3.87;;;3.00;;
37425;SDS011;23285;50.180;7.036;2023-02-24T14:34:01;10.57;;;4.03;;
37425;SDS011;23285;50.180;7.036;2023-02-24T14:36:53;7.47;;;3.70;;
37425;SDS011;23285;50.180;7.036;2023-02-24T14:39:48;6.57;;;2.93;;
37425;SDS011;23285;50.180;7.036;2023-02-24T14:42:44;5.13;;;2.93;;
37425;SDS011;23285;50.180;7.036;2023-02-24T14:45:32;7.83;;;3.23;;
37425;SDS011;23285;50.180;7.036;2023-02-24T14:48:20;6.10;;;3.50;;
37425;SDS011;23285;50.180;7.036;2023-02-24T14:51:11;5.57;;;3.30;;
37425;SDS011;23285;50.180;7.036;2023-02-24T14:54:05;6.67;;;2.50;;
37425;SDS011;23285;50.180;7.036;2023-02-24T14:56:57;3.43;;;2.30;;
37425;SDS011;23285;50.180;7.036;2023-02-24T14:59:45;4.93;;;2.30;;
37425;SDS011;23285;50.180;7.036;2023-02-24T15:02:37;6.07;;;2.60;;
37425;SDS011;23285;50.180;7.036;2023-02-24T15:05:28;3.97;;;2.67;;
37425;SDS011;23285;50.180;7.036;2023-02-24T15:08:18;6.80;;;2.43;;
37425;SDS011;23285;50.180;7.036;2023-02-24T15:11:17;3.40;;;2.30;;
37425;SDS011;23285;50.180;7.036;2023-02-24T15:14:14;5.80;;;2.37;;
37425;SDS011;23285;50.180;7.036;2023-02-24T15:17:07;3.43;;;1.90;;
37425;SDS011;23285;50.180;7.036;2023-02-24T15:20:00;5.17;;;2.50;;
37425;SDS011;23285;50.180;7.036;2023-02-24T15:22:50;4.57;;;2.00;;
37425;SDS011;23285;50.180;7.036;2023-02-24T15:25:42;4.00;;;2.10;;
37425;SDS011;23285;50.180;7.036;2023-02-24T15:28:31;6.77;;;2.27;;
37425;SDS011;23285;50.180;7.036;2023-02-24T15:31:18;4.33;;;2.17;;
37425;SDS011;23285;50.180;7.036;2023-02-24T15:34:12;7.73;;;2.60;;
37425;SDS011;23285;50.180;7.036;2023-02-24T15:37:11;5.70;;;2.60;;
37425;SDS011;23285;50.180;7.036;2023-02-24T15:40:02;9.53;;;3.33;;
37425;SDS011;23285;50.180;7.036;2023-02-24T15:42:53;5.57;;;2.80;;
37425;SDS011;23285;50.180;7.036;2023-02-24T15:45:41;5.63;;;2.60;;
37425;SDS011;23285;50.180;7.036;2023-02-24T15:48:27;8.53;;;3.00;;
37425;SDS011;23285;50.180;7.036;2023-02-24T15:51:17;5.73;;;2.90;;
37425;SDS011;23285;50.180;7.036;2023-02-24T15:54:09;8.73;;;2.93;;
37425;SDS011;23285;50.180;7.036;2023-02-24T15:56:57;5.47;;;2.83;;
37425;SDS011;23285;50.180;7.036;2023-02-24T15:59:46;9.73;;;3.20;;
37425;SDS011;23285;50.180;7.036;2023-02-24T16:02:33;5.63;;;2.90;;
37425;SDS011;23285;50.180;7.036;2023-02-24T16:05:19;9.90;;;3.17;;
37425;SDS011;23285;50.180;7.036;2023-02-24T16:08:06;8.27;;;2.63;;
37425;SDS011;23285;50.180;7.036;2023-02-24T16:10:56;5.53;;;2.80;;
37425;SDS011;23285;50.180;7.036;2023-02-24T16:13:43;5.53;;;2.77;;
37425;SDS011;23285;50.180;7.036;2023-02-24T16:16:36;8.00;;;3.03;;
37425;SDS011;23285;50.180;7.036;2023-02-24T16:19:23;9.20;;;3.47;;
37425;SDS011;23285;50.180;7.036;2023-02-24T16:22:09;4.03;;;2.50;;
37425;SDS011;23285;50.180;7.036;2023-02-24T16:24:55;6.03;;;3.47;;
37425;SDS011;23285;50.180;7.036;2023-02-24T16:27:41;6.10;;;2.97;;
37425;SDS011;23285;50.180;7.036;2023-02-24T16:30:28;11.03;;;4.37;;
37425;SDS011;23285;50.180;7.036;2023-02-24T16:33:17;3.40;;;3.07;;
37425;SDS011;23285;50.180;7.036;2023-02-24T16:36:08;5.43;;;3.00;;
37425;SDS011;23285;50.180;7.036;2023-02-24T16:38:56;6.30;;;3.27;;
37425;SDS011;23285;50.180;7.036;2023-02-24T16:41:44;6.80;;;3.80;;
37425;SDS011;23285;50.180;7.036;2023-02-24T16:44:31;10.20;;;4.30;;
37425;SDS011;23285;50.180;7.036;2023-02-24T16:47:18;7.13;;;4.23;;
37425;SDS011;23285;50.180;7.036;2023-02-24T16:50:10;6.47;;;4.73;;
37425;SDS011;23285;50.180;7.036;2023-02-24T16:53:04;8.30;;;4.67;;
37425;SDS011;23285;50.180;7.036;2023-02-24T16:55:51;9.60;;;4.27;;
37425;SDS011;23285;50.180;7.036;2023-02-24T16:58:37;7.90;;;4.33;;
37425;SDS011;23285;50.180;7.036;2023-02-24T17:01:24;8.17;;;4.53;;